This is the latest recevied weather packets stored in our database for station/object N5LSN. If no packets are shown the sender has not sent any weather packets the latest 10 day(s).
| Time | Temp. | Humidity | Pressure | Rain* | Wind** | Luminosity | Snow |
|---|---|---|---|---|---|---|---|
| 1777816348 | 14.44° C | 74% | 1022.4 hPa | 0 mm | - | 428 W/m² | - |
| 1777816045 | 14.44° C | 76% | 1022.1 hPa | 0 mm | - | 407 W/m² | - |
| 1777815742 | 13.89° C | 74% | 1022.6 hPa | 0 mm | - | 385 W/m² | - |
| 1777815440 | 13.89° C | 75% | 1022.2 hPa | 0 mm | - | 361 W/m² | - |
| 1777815137 | 13.33° C | 76% | 1022.3 hPa | 0 mm | - | 339 W/m² | - |
| 1777814834 | 13.33° C | 76% | 1022.3 hPa | 0 mm | - | 302 W/m² | - |
| 1777814529 | 13.89° C | 76% | 1022.1 hPa | 0 mm | - | 253 W/m² | - |
| 1777814227 | 13.33° C | 76% | 1022.3 hPa | 0 mm | - | 216 W/m² | - |
| 1777813924 | 13.33° C | 76% | 1022.4 hPa | 0 mm | - | 237 W/m² | - |
| 1777813621 | 12.78° C | 78% | 1022.3 hPa | 0 mm | - | 187 W/m² | - |
| 1777813319 | 12.78° C | 79% | 1022.2 hPa | 0 mm | - | 194 W/m² | - |
| 1777813016 | 12.22° C | 82% | 1022.1 hPa | 0 mm | - | 168 W/m² | - |
| 1777812714 | 10.56° C | 91% | 1022.2 hPa | 0 mm | - | 161 W/m² | - |
| 1777812410 | 9.44° C | 95% | 1022 hPa | 0 mm | - | 115 W/m² | - |
| 1777812108 | 8.89° C | 98% | 1022.1 hPa | 0 mm | - | 46 W/m² | - |
| 1777811806 | 8.33° C | 99% | 1022.1 hPa | 0 mm | - | 44 W/m² | - |
| 1777811503 | 8.33° C | 99% | 1021.9 hPa | 0 mm | - | 42 W/m² | - |
| 1777811199 | 7.78° C | 99% | 1022 hPa | 0 mm | - | 40 W/m² | - |
| 1777810897 | 7.22° C | 99% | 1022 hPa | 0 mm | - | 38 W/m² | - |
| 1777810593 | 6.67° C | 99% | 1021.8 hPa | 0 mm | - | 36 W/m² | - |
| 1777810290 | 6.67° C | 99% | 1021.8 hPa | 0 mm | - | 33 W/m² | - |
| 1777809985 | 6.11° C | 99% | 1021.8 hPa | 0 mm | - | 31 W/m² | - |
| 1777809684 | 6.11° C | 99% | 1021.9 hPa | 0 mm | - | 28 W/m² | - |
| 1777809381 | 6.11° C | 99% | 1021.7 hPa | 0 mm | - | 26 W/m² | - |
| 1777809079 | 5.56° C | 99% | 1021.7 hPa | 0 mm | - | 23 W/m² | - |
* Rain latest hour (hover to see other rain measurements)
** Current wind speed in m/s (hover to see current wind gust speed)